sensor_id;sensor_type;location;lat;lon;timestamp;temperature;humidity
52267;DHT22;38223;50.940;4.034;2022-07-04T00:01:26;18.60;99.90
52267;DHT22;38223;50.940;4.034;2022-07-04T00:03:57;18.50;99.90
52267;DHT22;38223;50.940;4.034;2022-07-04T00:06:25;18.40;99.90
52267;DHT22;38223;50.940;4.034;2022-07-04T00:08:56;18.30;99.90
52267;DHT22;38223;50.940;4.034;2022-07-04T00:11:28;18.20;99.90
52267;DHT22;38223;50.940;4.034;2022-07-04T00:14:04;18.30;99.90
52267;DHT22;38223;50.940;4.034;2022-07-04T00:16:33;18.20;99.90
52267;DHT22;38223;50.940;4.034;2022-07-04T00:19:09;18.10;99.90
52267;DHT22;38223;50.940;4.034;2022-07-04T00:21:39;18.00;99.90
52267;DHT22;38223;50.940;4.034;2022-07-04T00:24:12;18.00;99.90
52267;DHT22;38223;50.940;4.034;2022-07-04T00:26:48;18.00;99.90
52267;DHT22;38223;50.940;4.034;2022-07-04T00:29:17;17.90;99.90
52267;DHT22;38223;50.940;4.034;2022-07-04T00:31:49;18.00;99.90
52267;DHT22;38223;50.940;4.034;2022-07-04T00:34:18;18.00;99.90
52267;DHT22;38223;50.940;4.034;2022-07-04T00:36:46;18.10;99.90
52267;DHT22;38223;50.940;4.034;2022-07-04T00:39:15;18.10;99.90
52267;DHT22;38223;50.940;4.034;2022-07-04T00:41:50;18.20;99.90
52267;DHT22;38223;50.940;4.034;2022-07-04T00:44:23;18.30;99.90
52267;DHT22;38223;50.940;4.034;2022-07-04T00:46:52;18.30;99.90
52267;DHT22;38223;50.940;4.034;2022-07-04T00:49:26;18.50;99.90
52267;DHT22;38223;50.940;4.034;2022-07-04T00:51:57;18.40;99.90
52267;DHT22;38223;50.940;4.034;2022-07-04T00:54:35;18.20;99.90
52267;DHT22;38223;50.940;4.034;2022-07-04T00:57:04;18.00;99.90
52267;DHT22;38223;50.940;4.034;2022-07-04T00:59:38;17.90;99.90
52267;DHT22;38223;50.940;4.034;2022-07-04T01:02:10;17.80;99.90
52267;DHT22;38223;50.940;4.034;2022-07-04T01:04:46;17.70;99.90
52267;DHT22;38223;50.940;4.034;2022-07-04T01:07:15;17.70;99.90
52267;DHT22;38223;50.940;4.034;2022-07-04T01:09:49;17.70;99.90
52267;DHT22;38223;50.940;4.034;2022-07-04T01:12:30;17.60;99.90
52267;DHT22;38223;50.940;4.034;2022-07-04T01:15:10;17.60;99.90
52267;DHT22;38223;50.940;4.034;2022-07-04T01:17:36;17.80;99.90
52267;DHT22;38223;50.940;4.034;2022-07-04T01:20:10;17.80;99.90
52267;DHT22;38223;50.940;4.034;2022-07-04T01:22:41;17.70;99.90
52267;DHT22;38223;50.940;4.034;2022-07-04T01:25:14;17.70;99.90
52267;DHT22;38223;50.940;4.034;2022-07-04T01:27:47;17.70;99.90
52267;DHT22;38223;50.940;4.034;2022-07-04T01:30:16;18.10;99.90
52267;DHT22;38223;50.940;4.034;2022-07-04T01:32:47;18.20;99.90
52267;DHT22;38223;50.940;4.034;2022-07-04T01:35:19;17.90;99.90
52267;DHT22;38223;50.940;4.034;2022-07-04T01:37:50;17.90;99.90
52267;DHT22;38223;50.940;4.034;2022-07-04T01:40:25;18.00;99.90
52267;DHT22;38223;50.940;4.034;2022-07-04T01:42:56;17.90;99.90
52267;DHT22;38223;50.940;4.034;2022-07-04T01:45:32;17.70;99.90
52267;DHT22;38223;50.940;4.034;2022-07-04T01:48:08;17.70;99.90
52267;DHT22;38223;50.940;4.034;2022-07-04T01:50:40;17.90;99.90
52267;DHT22;38223;50.940;4.034;2022-07-04T01:56:04;17.80;99.90
52267;DHT22;38223;50.940;4.034;2022-07-04T01:58:39;17.70;99.90
52267;DHT22;38223;50.940;4.034;2022-07-04T02:01:11;17.60;99.90
52267;DHT22;38223;50.940;4.034;2022-07-04T02:04:02;17.50;99.90
52267;DHT22;38223;50.940;4.034;2022-07-04T02:06:39;17.30;99.90
52267;DHT22;38223;50.940;4.034;2022-07-04T02:09:10;17.20;99.90
52267;DHT22;38223;50.940;4.034;2022-07-04T02:11:50;17.00;99.90
52267;DHT22;38223;50.940;4.034;2022-07-04T02:14:40;17.00;99.90
52267;DHT22;38223;50.940;4.034;2022-07-04T02:17:13;16.80;99.90
52267;DHT22;38223;50.940;4.034;2022-07-04T02:19:48;16.80;99.90
52267;DHT22;38223;50.940;4.034;2022-07-04T02:22:22;16.90;99.90
52267;DHT22;38223;50.940;4.034;2022-07-04T02:24:58;16.80;99.90
52267;DHT22;38223;50.940;4.034;2022-07-04T02:27:30;16.90;99.90
52267;DHT22;38223;50.940;4.034;2022-07-04T02:30:02;16.80;99.90
52267;DHT22;38223;50.940;4.034;2022-07-04T02:32:32;16.70;99.90
52267;DHT22;38223;50.940;4.034;2022-07-04T02:35:05;16.80;99.90
52267;DHT22;38223;50.940;4.034;2022-07-04T02:37:40;16.70;99.90
52267;DHT22;38223;50.940;4.034;2022-07-04T02:40:11;16.60;99.90
52267;DHT22;38223;50.940;4.034;2022-07-04T02:42:46;16.50;99.90
52267;DHT22;38223;50.940;4.034;2022-07-04T02:45:18;16.40;99.90
52267;DHT22;38223;50.940;4.034;2022-07-04T02:47:54;16.40;99.90
52267;DHT22;38223;50.940;4.034;2022-07-04T02:50:26;16.30;99.90
52267;DHT22;38223;50.940;4.034;2022-07-04T02:52:56;16.20;99.90
52267;DHT22;38223;50.940;4.034;2022-07-04T02:55:30;16.10;99.90
52267;DHT22;38223;50.940;4.034;2022-07-04T02:58:18;16.00;99.90
52267;DHT22;38223;50.940;4.034;2022-07-04T03:00:50;16.00;99.90
52267;DHT22;38223;50.940;4.034;2022-07-04T03:03:20;16.00;99.90
52267;DHT22;38223;50.940;4.034;2022-07-04T03:05:55;15.90;99.90
52267;DHT22;38223;50.940;4.034;2022-07-04T03:08:38;15.80;99.90
52267;DHT22;38223;50.940;4.034;2022-07-04T03:11:08;15.80;99.90
52267;DHT22;38223;50.940;4.034;2022-07-04T03:13:43;15.70;99.90
52267;DHT22;38223;50.940;4.034;2022-07-04T03:16:18;15.60;99.90
52267;DHT22;38223;50.940;4.034;2022-07-04T03:18:53;15.50;99.90
52267;DHT22;38223;50.940;4.034;2022-07-04T03:21:23;15.40;99.90
52267;DHT22;38223;50.940;4.034;2022-07-04T03:23:58;15.30;99.90
52267;DHT22;38223;50.940;4.034;2022-07-04T03:26:30;15.20;99.90
52267;DHT22;38223;50.940;4.034;2022-07-04T03:29:07;15.20;99.90
52267;DHT22;38223;50.940;4.034;2022-07-04T03:31:38;15.20;99.90
52267;DHT22;38223;50.940;4.034;2022-07-04T03:34:15;15.10;99.90
52267;DHT22;38223;50.940;4.034;2022-07-04T03:36:44;15.00;99.90
52267;DHT22;38223;50.940;4.034;2022-07-04T03:39:14;15.10;99.90
52267;DHT22;38223;50.940;4.034;2022-07-04T03:41:47;15.20;99.90
52267;DHT22;38223;50.940;4.034;2022-07-04T03:44:22;15.40;99.90
52267;DHT22;38223;50.940;4.034;2022-07-04T03:46:52;15.40;99.90
52267;DHT22;38223;50.940;4.034;2022-07-04T03:49:25;15.50;99.90
52267;DHT22;38223;50.940;4.034;2022-07-04T03:52:00;15.50;99.90
52267;DHT22;38223;50.940;4.034;2022-07-04T03:54:29;15.50;99.90
52267;DHT22;38223;50.940;4.034;2022-07-04T03:57:02;15.50;99.90
52267;DHT22;38223;50.940;4.034;2022-07-04T03:59:36;15.50;99.90
52267;DHT22;38223;50.940;4.034;2022-07-04T04:02:08;15.60;99.90
52267;DHT22;38223;50.940;4.034;2022-07-04T04:04:37;15.60;99.90
52267;DHT22;38223;50.940;4.034;2022-07-04T04:07:23;15.50;99.90
52267;DHT22;38223;50.940;4.034;2022-07-04T04:09:59;15.50;99.90
52267;DHT22;38223;50.940;4.034;2022-07-04T04:12:33;15.40;99.90
52267;DHT22;38223;50.940;4.034;2022-07-04T04:15:02;15.30;99.90
52267;DHT22;38223;50.940;4.034;2022-07-04T04:17:37;15.30;99.90
52267;DHT22;38223;50.940;4.034;2022-07-04T04:20:08;15.30;99.90
52267;DHT22;38223;50.940;4.034;2022-07-04T04:22:40;15.30;99.90
52267;DHT22;38223;50.940;4.034;2022-07-04T04:25:15;15.30;99.90
52267;DHT22;38223;50.940;4.034;2022-07-04T04:27:44;15.20;99.90
52267;DHT22;38223;50.940;4.034;2022-07-04T04:30:19;15.10;99.90
52267;DHT22;38223;50.940;4.034;2022-07-04T04:32:52;15.10;99.90
52267;DHT22;38223;50.940;4.034;2022-07-04T04:35:26;15.00;99.90
52267;DHT22;38223;50.940;4.034;2022-07-04T04:37:59;15.00;99.90
52267;DHT22;38223;50.940;4.034;2022-07-04T04:40:35;15.00;99.90
52267;DHT22;38223;50.940;4.034;2022-07-04T04:43:04;15.10;99.90
52267;DHT22;38223;50.940;4.034;2022-07-04T04:45:40;15.20;99.90
52267;DHT22;38223;50.940;4.034;2022-07-04T04:48:09;15.20;99.90
52267;DHT22;38223;50.940;4.034;2022-07-04T04:50:43;15.30;99.90
52267;DHT22;38223;50.940;4.034;2022-07-04T04:53:20;15.30;99.90
52267;DHT22;38223;50.940;4.034;2022-07-04T04:55:51;15.40;99.90
52267;DHT22;38223;50.940;4.034;2022-07-04T04:58:25;15.40;99.90
52267;DHT22;38223;50.940;4.034;2022-07-04T05:00:54;15.40;99.90
52267;DHT22;38223;50.940;4.034;2022-07-04T05:03:26;15.40;99.90
52267;DHT22;38223;50.940;4.034;2022-07-04T05:05:56;15.30;99.90
52267;DHT22;38223;50.940;4.034;2022-07-04T05:08:31;15.40;99.90
52267;DHT22;38223;50.940;4.034;2022-07-04T05:11:01;15.50;99.90
52267;DHT22;38223;50.940;4.034;2022-07-04T05:13:35;15.50;99.90
52267;DHT22;38223;50.940;4.034;2022-07-04T05:16:10;15.60;99.90
52267;DHT22;38223;50.940;4.034;2022-07-04T05:18:44;15.70;99.90
52267;DHT22;38223;50.940;4.034;2022-07-04T05:21:17;15.80;99.90
52267;DHT22;38223;50.940;4.034;2022-07-04T05:23:46;15.90;99.90
52267;DHT22;38223;50.940;4.034;2022-07-04T05:26:35;15.90;99.90
52267;DHT22;38223;50.940;4.034;2022-07-04T05:29:07;15.90;99.90
52267;DHT22;38223;50.940;4.034;2022-07-04T05:31:40;16.00;99.90
52267;DHT22;38223;50.940;4.034;2022-07-04T05:34:12;16.10;99.90
52267;DHT22;38223;50.940;4.034;2022-07-04T05:37:05;16.20;99.90
52267;DHT22;38223;50.940;4.034;2022-07-04T05:39:41;16.30;99.90
52267;DHT22;38223;50.940;4.034;2022-07-04T05:42:11;16.30;99.90
52267;DHT22;38223;50.940;4.034;2022-07-04T05:44:40;16.30;99.90
52267;DHT22;38223;50.940;4.034;2022-07-04T05:47:09;16.30;99.90
52267;DHT22;38223;50.940;4.034;2022-07-04T05:49:42;16.50;99.90
52267;DHT22;38223;50.940;4.034;2022-07-04T05:52:14;16.60;99.90
52267;DHT22;38223;50.940;4.034;2022-07-04T05:54:47;16.70;99.90
52267;DHT22;38223;50.940;4.034;2022-07-04T05:57:19;16.70;99.90
52267;DHT22;38223;50.940;4.034;2022-07-04T05:59:53;16.80;99.90
52267;DHT22;38223;50.940;4.034;2022-07-04T06:02:23;16.80;99.90
52267;DHT22;38223;50.940;4.034;2022-07-04T06:04:59;17.00;99.90
52267;DHT22;38223;50.940;4.034;2022-07-04T06:07:26;17.10;99.90
52267;DHT22;38223;50.940;4.034;2022-07-04T06:09:57;17.20;99.90
52267;DHT22;38223;50.940;4.034;2022-07-04T06:12:27;17.20;99.90
52267;DHT22;38223;50.940;4.034;2022-07-04T06:15:02;17.40;99.90
52267;DHT22;38223;50.940;4.034;2022-07-04T06:17:31;17.60;99.90
52267;DHT22;38223;50.940;4.034;2022-07-04T06:20:05;17.60;99.90
52267;DHT22;38223;50.940;4.034;2022-07-04T06:22:45;17.70;99.90
52267;DHT22;38223;50.940;4.034;2022-07-04T06:25:19;17.50;99.90
52267;DHT22;38223;50.940;4.034;2022-07-04T06:27:54;17.70;99.90
52267;DHT22;38223;50.940;4.034;2022-07-04T06:30:25;17.90;99.90
52267;DHT22;38223;50.940;4.034;2022-07-04T06:33:06;17.90;99.90
52267;DHT22;38223;50.940;4.034;2022-07-04T06:35:48;17.90;99.90
52267;DHT22;38223;50.940;4.034;2022-07-04T06:38:27;17.80;99.90
52267;DHT22;38223;50.940;4.034;2022-07-04T06:40:59;17.80;99.90
52267;DHT22;38223;50.940;4.034;2022-07-04T06:43:32;17.90;99.90
52267;DHT22;38223;50.940;4.034;2022-07-04T06:46:09;17.90;99.90
52267;DHT22;38223;50.940;4.034;2022-07-04T06:48:41;17.90;99.90
52267;DHT22;38223;50.940;4.034;2022-07-04T06:51:10;18.00;99.90
52267;DHT22;38223;50.940;4.034;2022-07-04T06:53:44;18.30;99.90
52267;DHT22;38223;50.940;4.034;2022-07-04T06:56:17;18.30;99.90
52267;DHT22;38223;50.940;4.034;2022-07-04T06:58:49;18.40;99.90
52267;DHT22;38223;50.940;4.034;2022-07-04T07:01:27;18.30;99.90
52267;DHT22;38223;50.940;4.034;2022-07-04T07:03:55;18.30;99.90
52267;DHT22;38223;50.940;4.034;2022-07-04T07:06:25;18.40;99.90
52267;DHT22;38223;50.940;4.034;2022-07-04T07:08:57;18.40;99.90
52267;DHT22;38223;50.940;4.034;2022-07-04T07:11:29;18.40;99.90
52267;DHT22;38223;50.940;4.034;2022-07-04T07:13:59;18.40;99.90
52267;DHT22;38223;50.940;4.034;2022-07-04T07:16:32;18.40;99.90
52267;DHT22;38223;50.940;4.034;2022-07-04T07:19:04;18.40;99.90
52267;DHT22;38223;50.940;4.034;2022-07-04T07:21:36;18.50;99.90
52267;DHT22;38223;50.940;4.034;2022-07-04T07:24:11;18.50;99.90
52267;DHT22;38223;50.940;4.034;2022-07-04T07:26:41;18.70;99.90
52267;DHT22;38223;50.940;4.034;2022-07-04T07:29:12;18.60;99.90
52267;DHT22;38223;50.940;4.034;2022-07-04T07:31:44;18.70;99.90
52267;DHT22;38223;50.940;4.034;2022-07-04T07:34:18;18.90;99.90
52267;DHT22;38223;50.940;4.034;2022-07-04T07:36:55;18.90;99.90
52267;DHT22;38223;50.940;4.034;2022-07-04T07:39:26;18.90;99.90
52267;DHT22;38223;50.940;4.034;2022-07-04T07:41:58;18.90;99.90
52267;DHT22;38223;50.940;4.034;2022-07-04T07:44:32;18.90;99.90
52267;DHT22;38223;50.940;4.034;2022-07-04T07:47:09;19.10;99.90
52267;DHT22;38223;50.940;4.034;2022-07-04T07:49:37;19.20;99.90
52267;DHT22;38223;50.940;4.034;2022-07-04T07:52:10;19.30;99.90
52267;DHT22;38223;50.940;4.034;2022-07-04T07:54:40;19.40;99.90
52267;DHT22;38223;50.940;4.034;2022-07-04T07:57:11;19.50;99.90
52267;DHT22;38223;50.940;4.034;2022-07-04T07:59:44;19.50;99.90
52267;DHT22;38223;50.940;4.034;2022-07-04T08:02:12;19.50;99.90
52267;DHT22;38223;50.940;4.034;2022-07-04T08:04:45;19.60;99.90
52267;DHT22;38223;50.940;4.034;2022-07-04T08:07:16;19.50;99.90
52267;DHT22;38223;50.940;4.034;2022-07-04T08:09:46;19.50;99.90
52267;DHT22;38223;50.940;4.034;2022-07-04T08:12:17;19.60;99.90
52267;DHT22;38223;50.940;4.034;2022-07-04T08:14:46;19.60;99.90
52267;DHT22;38223;50.940;4.034;2022-07-04T08:17:21;19.70;99.90
52267;DHT22;38223;50.940;4.034;2022-07-04T08:19:50;19.80;99.90
52267;DHT22;38223;50.940;4.034;2022-07-04T08:22:20;19.90;99.90
52267;DHT22;38223;50.940;4.034;2022-07-04T08:24:49;19.90;99.90
52267;DHT22;38223;50.940;4.034;2022-07-04T08:27:19;19.90;99.90
52267;DHT22;38223;50.940;4.034;2022-07-04T08:29:50;20.10;99.90
52267;DHT22;38223;50.940;4.034;2022-07-04T08:32:20;20.10;99.90
52267;DHT22;38223;50.940;4.034;2022-07-04T08:34:51;20.30;99.90
52267;DHT22;38223;50.940;4.034;2022-07-04T08:37:26;20.30;99.90
52267;DHT22;38223;50.940;4.034;2022-07-04T08:39:56;20.40;99.90
52267;DHT22;38223;50.940;4.034;2022-07-04T08:42:30;20.30;99.90
52267;DHT22;38223;50.940;4.034;2022-07-04T08:45:03;20.30;99.90
52267;DHT22;38223;50.940;4.034;2022-07-04T08:47:35;20.40;99.90
52267;DHT22;38223;50.940;4.034;2022-07-04T08:50:13;20.50;99.90
52267;DHT22;38223;50.940;4.034;2022-07-04T08:52:53;20.60;99.90
52267;DHT22;38223;50.940;4.034;2022-07-04T08:55:22;20.70;99.90
52267;DHT22;38223;50.940;4.034;2022-07-04T08:58:09;20.70;99.90
52267;DHT22;38223;50.940;4.034;2022-07-04T09:00:58;20.80;99.90
52267;DHT22;38223;50.940;4.034;2022-07-04T09:03:30;20.80;99.90
52267;DHT22;38223;50.940;4.034;2022-07-04T09:06:04;20.90;99.90
52267;DHT22;38223;50.940;4.034;2022-07-04T09:08:35;21.00;99.90
52267;DHT22;38223;50.940;4.034;2022-07-04T09:11:12;21.00;99.90
52267;DHT22;38223;50.940;4.034;2022-07-04T09:13:44;21.20;99.90
52267;DHT22;38223;50.940;4.034;2022-07-04T09:16:17;21.30;99.90
52267;DHT22;38223;50.940;4.034;2022-07-04T09:18:48;21.20;99.90
52267;DHT22;38223;50.940;4.034;2022-07-04T09:21:19;21.40;99.90
52267;DHT22;38223;50.940;4.034;2022-07-04T09:23:54;21.50;99.90
52267;DHT22;38223;50.940;4.034;2022-07-04T09:26:25;21.50;99.90
52267;DHT22;38223;50.940;4.034;2022-07-04T09:29:07;21.40;99.90
52267;DHT22;38223;50.940;4.034;2022-07-04T09:31:39;21.40;99.90
52267;DHT22;38223;50.940;4.034;2022-07-04T09:34:15;21.30;99.90
52267;DHT22;38223;50.940;4.034;2022-07-04T09:36:51;21.40;99.90
52267;DHT22;38223;50.940;4.034;2022-07-04T09:39:33;21.70;99.90
52267;DHT22;38223;50.940;4.034;2022-07-04T09:42:26;21.90;99.90
52267;DHT22;38223;50.940;4.034;2022-07-04T09:45:04;22.10;99.90
52267;DHT22;38223;50.940;4.034;2022-07-04T09:47:33;22.30;99.90
52267;DHT22;38223;50.940;4.034;2022-07-04T09:50:19;22.20;99.90
52267;DHT22;38223;50.940;4.034;2022-07-04T09:53:00;22.10;99.90
52267;DHT22;38223;50.940;4.034;2022-07-04T09:55:36;21.90;99.90
52267;DHT22;38223;50.940;4.034;2022-07-04T09:58:15;22.10;99.90
52267;DHT22;38223;50.940;4.034;2022-07-04T10:00:49;22.30;99.90
52267;DHT22;38223;50.940;4.034;2022-07-04T10:03:26;22.40;99.90
52267;DHT22;38223;50.940;4.034;2022-07-04T10:06:10;22.50;99.90
52267;DHT22;38223;50.940;4.034;2022-07-04T10:08:40;22.70;99.90
52267;DHT22;38223;50.940;4.034;2022-07-04T10:11:13;22.70;99.90
52267;DHT22;38223;50.940;4.034;2022-07-04T10:13:44;22.60;99.90
52267;DHT22;38223;50.940;4.034;2022-07-04T10:16:19;22.60;99.90
52267;DHT22;38223;50.940;4.034;2022-07-04T10:18:56;22.70;99.90
52267;DHT22;38223;50.940;4.034;2022-07-04T10:21:30;22.60;99.90
52267;DHT22;38223;50.940;4.034;2022-07-04T10:24:02;22.50;99.90
52267;DHT22;38223;50.940;4.034;2022-07-04T10:26:37;22.60;99.90
52267;DHT22;38223;50.940;4.034;2022-07-04T10:29:13;22.60;99.90
52267;DHT22;38223;50.940;4.034;2022-07-04T10:31:41;22.70;99.90
52267;DHT22;38223;50.940;4.034;2022-07-04T10:34:13;22.70;99.90
52267;DHT22;38223;50.940;4.034;2022-07-04T10:36:50;22.90;99.90
52267;DHT22;38223;50.940;4.034;2022-07-04T10:39:21;22.80;99.90
52267;DHT22;38223;50.940;4.034;2022-07-04T10:42:02;22.70;99.90
52267;DHT22;38223;50.940;4.034;2022-07-04T10:44:36;22.70;99.90
52267;DHT22;38223;50.940;4.034;2022-07-04T10:47:21;22.60;99.90
52267;DHT22;38223;50.940;4.034;2022-07-04T10:49:43;22.60;99.90
52267;DHT22;38223;50.940;4.034;2022-07-04T10:52:15;22.60;99.90
52267;DHT22;38223;50.940;4.034;2022-07-04T10:54:47;22.70;99.90
52267;DHT22;38223;50.940;4.034;2022-07-04T10:57:23;22.90;99.90
52267;DHT22;38223;50.940;4.034;2022-07-04T11:02:36;22.90;99.90
52267;DHT22;38223;50.940;4.034;2022-07-04T11:05:11;22.70;99.90
52267;DHT22;38223;50.940;4.034;2022-07-04T11:10:22;22.40;99.90
52267;DHT22;38223;50.940;4.034;2022-07-04T11:13:02;22.40;99.90
52267;DHT22;38223;50.940;4.034;2022-07-04T11:18:11;22.90;99.90
52267;DHT22;38223;50.940;4.034;2022-07-04T11:20:45;22.90;99.90
52267;DHT22;38223;50.940;4.034;2022-07-04T11:23:20;22.80;99.90
52267;DHT22;38223;50.940;4.034;2022-07-04T11:25:52;22.80;99.90
52267;DHT22;38223;50.940;4.034;2022-07-04T11:28:24;22.90;99.90
52267;DHT22;38223;50.940;4.034;2022-07-04T11:30:59;22.90;99.80
52267;DHT22;38223;50.940;4.034;2022-07-04T11:33:33;23.10;98.70
52267;DHT22;38223;50.940;4.034;2022-07-04T11:36:18;23.40;98.10
52267;DHT22;38223;50.940;4.034;2022-07-04T11:39:02;23.50;97.50
52267;DHT22;38223;50.940;4.034;2022-07-04T11:41:39;23.60;97.10
52267;DHT22;38223;50.940;4.034;2022-07-04T11:44:29;23.80;96.10
52267;DHT22;38223;50.940;4.034;2022-07-04T11:47:19;23.80;95.80
52267;DHT22;38223;50.940;4.034;2022-07-04T11:49:57;23.70;96.50
52267;DHT22;38223;50.940;4.034;2022-07-04T11:52:38;23.90;96.40
52267;DHT22;38223;50.940;4.034;2022-07-04T11:55:05;23.80;96.10
52267;DHT22;38223;50.940;4.034;2022-07-04T11:57:39;23.60;94.80
52267;DHT22;38223;50.940;4.034;2022-07-04T12:00:13;23.60;95.10
52267;DHT22;38223;50.940;4.034;2022-07-04T12:02:46;23.60;94.70
52267;DHT22;38223;50.940;4.034;2022-07-04T12:05:19;23.70;94.20
52267;DHT22;38223;50.940;4.034;2022-07-04T12:07:55;24.00;94.90
52267;DHT22;38223;50.940;4.034;2022-07-04T12:10:28;24.10;94.60
52267;DHT22;38223;50.940;4.034;2022-07-04T12:13:10;24.30;94.60
52267;DHT22;38223;50.940;4.034;2022-07-04T12:15:51;24.30;93.00
52267;DHT22;38223;50.940;4.034;2022-07-04T12:18:26;24.20;93.50
52267;DHT22;38223;50.940;4.034;2022-07-04T12:21:02;24.10;94.20
52267;DHT22;38223;50.940;4.034;2022-07-04T12:23:26;24.10;94.30
52267;DHT22;38223;50.940;4.034;2022-07-04T12:25:57;24.00;94.00
52267;DHT22;38223;50.940;4.034;2022-07-04T12:28:34;24.10;94.00
52267;DHT22;38223;50.940;4.034;2022-07-04T12:31:00;24.10;94.00
52267;DHT22;38223;50.940;4.034;2022-07-04T12:33:34;24.20;94.00
52267;DHT22;38223;50.940;4.034;2022-07-04T12:36:05;24.50;93.50
52267;DHT22;38223;50.940;4.034;2022-07-04T12:38:39;24.50;93.40
52267;DHT22;38223;50.940;4.034;2022-07-04T12:41:14;24.60;93.20
52267;DHT22;38223;50.940;4.034;2022-07-04T12:43:51;24.40;93.00
52267;DHT22;38223;50.940;4.034;2022-07-04T12:46:34;24.40;93.40
52267;DHT22;38223;50.940;4.034;2022-07-04T12:49:06;24.50;93.30
52267;DHT22;38223;50.940;4.034;2022-07-04T12:51:40;24.30;92.80
52267;DHT22;38223;50.940;4.034;2022-07-04T12:54:20;24.20;93.20
52267;DHT22;38223;50.940;4.034;2022-07-04T12:57:07;24.20;93.60
52267;DHT22;38223;50.940;4.034;2022-07-04T12:59:40;24.50;93.90
52267;DHT22;38223;50.940;4.034;2022-07-04T13:02:13;24.80;92.20
52267;DHT22;38223;50.940;4.034;2022-07-04T13:04:43;24.80;91.80
52267;DHT22;38223;50.940;4.034;2022-07-04T13:07:29;24.90;90.80
52267;DHT22;38223;50.940;4.034;2022-07-04T13:10:06;25.10;90.50
52267;DHT22;38223;50.940;4.034;2022-07-04T13:12:40;25.30;90.30
52267;DHT22;38223;50.940;4.034;2022-07-04T13:15:14;25.40;90.10
52267;DHT22;38223;50.940;4.034;2022-07-04T13:17:46;25.20;90.50
52267;DHT22;38223;50.940;4.034;2022-07-04T13:20:18;25.10;90.80
52267;DHT22;38223;50.940;4.034;2022-07-04T13:22:52;25.10;90.90
52267;DHT22;38223;50.940;4.034;2022-07-04T13:25:25;25.30;90.20
52267;DHT22;38223;50.940;4.034;2022-07-04T13:27:59;25.40;88.10
52267;DHT22;38223;50.940;4.034;2022-07-04T13:30:31;25.50;88.90
52267;DHT22;38223;50.940;4.034;2022-07-04T13:33:02;25.60;88.70
52267;DHT22;38223;50.940;4.034;2022-07-04T13:35:34;25.80;87.70
52267;DHT22;38223;50.940;4.034;2022-07-04T13:38:06;25.70;86.80
52267;DHT22;38223;50.940;4.034;2022-07-04T13:40:45;25.70;87.80
52267;DHT22;38223;50.940;4.034;2022-07-04T13:43:11;25.70;88.30
52267;DHT22;38223;50.940;4.034;2022-07-04T13:45:44;25.90;88.50
52267;DHT22;38223;50.940;4.034;2022-07-04T13:48:18;25.90;87.20
52267;DHT22;38223;50.940;4.034;2022-07-04T13:50:50;25.70;87.00
52267;DHT22;38223;50.940;4.034;2022-07-04T13:53:25;25.70;87.90
52267;DHT22;38223;50.940;4.034;2022-07-04T13:55:59;25.50;87.90
52267;DHT22;38223;50.940;4.034;2022-07-04T13:58:31;25.60;87.80
52267;DHT22;38223;50.940;4.034;2022-07-04T14:01:02;25.50;87.60
52267;DHT22;38223;50.940;4.034;2022-07-04T14:03:30;25.50;88.10
52267;DHT22;38223;50.940;4.034;2022-07-04T14:06:03;25.60;88.20
52267;DHT22;38223;50.940;4.034;2022-07-04T14:08:32;25.60;88.30
52267;DHT22;38223;50.940;4.034;2022-07-04T14:11:06;25.70;88.70
52267;DHT22;38223;50.940;4.034;2022-07-04T14:13:39;25.80;88.20
52267;DHT22;38223;50.940;4.034;2022-07-04T14:16:08;26.10;87.20
52267;DHT22;38223;50.940;4.034;2022-07-04T14:18:41;26.20;86.70
52267;DHT22;38223;50.940;4.034;2022-07-04T14:21:12;26.20;84.90
52267;DHT22;38223;50.940;4.034;2022-07-04T14:23:47;26.10;84.60
52267;DHT22;38223;50.940;4.034;2022-07-04T14:26:20;26.00;84.60
52267;DHT22;38223;50.940;4.034;2022-07-04T14:29:10;25.90;85.60
52267;DHT22;38223;50.940;4.034;2022-07-04T14:31:42;26.00;85.20
52267;DHT22;38223;50.940;4.034;2022-07-04T14:34:20;26.00;84.90
52267;DHT22;38223;50.940;4.034;2022-07-04T14:36:51;26.00;85.40
52267;DHT22;38223;50.940;4.034;2022-07-04T14:39:20;26.10;85.70
52267;DHT22;38223;50.940;4.034;2022-07-04T14:41:53;26.20;84.20
52267;DHT22;38223;50.940;4.034;2022-07-04T14:44:29;26.20;83.50
52267;DHT22;38223;50.940;4.034;2022-07-04T14:47:03;26.20;83.20
52267;DHT22;38223;50.940;4.034;2022-07-04T14:49:36;26.10;83.90
52267;DHT22;38223;50.940;4.034;2022-07-04T14:52:11;25.80;83.70
52267;DHT22;38223;50.940;4.034;2022-07-04T14:54:45;25.80;82.90
52267;DHT22;38223;50.940;4.034;2022-07-04T14:57:15;25.70;83.50
52267;DHT22;38223;50.940;4.034;2022-07-04T14:59:46;25.80;84.40
52267;DHT22;38223;50.940;4.034;2022-07-04T15:02:18;25.90;83.10
52267;DHT22;38223;50.940;4.034;2022-07-04T15:04:53;25.90;81.90
52267;DHT22;38223;50.940;4.034;2022-07-04T15:07:22;25.60;83.40
52267;DHT22;38223;50.940;4.034;2022-07-04T15:09:54;25.80;83.60
52267;DHT22;38223;50.940;4.034;2022-07-04T15:12:25;25.80;80.30
52267;DHT22;38223;50.940;4.034;2022-07-04T15:15:02;25.90;79.80
52267;DHT22;38223;50.940;4.034;2022-07-04T15:17:34;26.00;80.40
52267;DHT22;38223;50.940;4.034;2022-07-04T15:20:07;26.00;81.80
52267;DHT22;38223;50.940;4.034;2022-07-04T15:22:55;26.00;81.40
52267;DHT22;38223;50.940;4.034;2022-07-04T15:25:43;26.00;81.20
52267;DHT22;38223;50.940;4.034;2022-07-04T15:28:14;26.00;81.50
52267;DHT22;38223;50.940;4.034;2022-07-04T15:30:49;25.90;82.40
52267;DHT22;38223;50.940;4.034;2022-07-04T15:33:18;25.90;82.60
52267;DHT22;38223;50.940;4.034;2022-07-04T15:35:52;26.00;82.50
52267;DHT22;38223;50.940;4.034;2022-07-04T15:38:22;26.20;82.00
52267;DHT22;38223;50.940;4.034;2022-07-04T15:40:53;26.20;80.50
52267;DHT22;38223;50.940;4.034;2022-07-04T15:43:21;26.20;80.20
52267;DHT22;38223;50.940;4.034;2022-07-04T15:45:55;26.00;81.00
52267;DHT22;38223;50.940;4.034;2022-07-04T15:48:25;26.10;81.70
52267;DHT22;38223;50.940;4.034;2022-07-04T15:51:01;26.10;81.70
52267;DHT22;38223;50.940;4.034;2022-07-04T15:53:31;26.00;81.60
52267;DHT22;38223;50.940;4.034;2022-07-04T15:56:07;26.10;80.00
52267;DHT22;38223;50.940;4.034;2022-07-04T15:58:36;25.90;80.70
52267;DHT22;38223;50.940;4.034;2022-07-04T16:01:08;26.00;81.10
52267;DHT22;38223;50.940;4.034;2022-07-04T16:03:42;26.00;81.00
52267;DHT22;38223;50.940;4.034;2022-07-04T16:06:14;25.90;80.20
52267;DHT22;38223;50.940;4.034;2022-07-04T16:08:43;25.90;80.10
52267;DHT22;38223;50.940;4.034;2022-07-04T16:11:21;25.30;89.10
52267;DHT22;38223;50.940;4.034;2022-07-04T16:13:53;24.60;91.70
52267;DHT22;38223;50.940;4.034;2022-07-04T16:16:27;24.30;92.90
52267;DHT22;38223;50.940;4.034;2022-07-04T16:18:54;23.90;94.10
52267;DHT22;38223;50.940;4.034;2022-07-04T16:21:29;23.80;94.70